sensor_id;sensor_type;location;lat;lon;timestamp;temperature;humidity
19930;DHT22;10127;47.780;9.606;2023-09-18T00:01:11;18.90;99.90
19930;DHT22;10127;47.780;9.606;2023-09-18T00:03:43;18.90;99.90
19930;DHT22;10127;47.780;9.606;2023-09-18T00:06:22;18.90;99.90
19930;DHT22;10127;47.780;9.606;2023-09-18T00:08:55;18.70;99.90
19930;DHT22;10127;47.780;9.606;2023-09-18T00:11:21;18.70;99.90
19930;DHT22;10127;47.780;9.606;2023-09-18T00:13:46;18.70;99.90
19930;DHT22;10127;47.780;9.606;2023-09-18T00:16:12;18.80;99.90
19930;DHT22;10127;47.780;9.606;2023-09-18T00:18:38;18.80;99.90
19930;DHT22;10127;47.780;9.606;2023-09-18T00:21:04;18.80;99.90
19930;DHT22;10127;47.780;9.606;2023-09-18T00:23:32;18.90;99.90
19930;DHT22;10127;47.780;9.606;2023-09-18T00:26:00;19.00;99.90
19930;DHT22;10127;47.780;9.606;2023-09-18T00:28:26;19.00;99.90
19930;DHT22;10127;47.780;9.606;2023-09-18T00:30:52;19.10;99.90
19930;DHT22;10127;47.780;9.606;2023-09-18T00:33:17;19.10;99.90
19930;DHT22;10127;47.780;9.606;2023-09-18T00:35:49;19.10;99.90
19930;DHT22;10127;47.780;9.606;2023-09-18T00:38:15;19.10;99.90
19930;DHT22;10127;47.780;9.606;2023-09-18T00:40:41;19.00;99.90
19930;DHT22;10127;47.780;9.606;2023-09-18T00:43:07;18.90;99.90
19930;DHT22;10127;47.780;9.606;2023-09-18T00:45:34;18.90;99.90
19930;DHT22;10127;47.780;9.606;2023-09-18T00:48:00;18.80;99.90
19930;DHT22;10127;47.780;9.606;2023-09-18T00:50:26;18.70;99.90
19930;DHT22;10127;47.780;9.606;2023-09-18T00:52:52;18.70;99.90
19930;DHT22;10127;47.780;9.606;2023-09-18T00:55:18;18.70;99.90
19930;DHT22;10127;47.780;9.606;2023-09-18T00:57:45;18.60;99.90
19930;DHT22;10127;47.780;9.606;2023-09-18T01:00:12;18.60;99.90
19930;DHT22;10127;47.780;9.606;2023-09-18T01:02:42;18.50;99.90
19930;DHT22;10127;47.780;9.606;2023-09-18T01:05:08;18.50;99.90
19930;DHT22;10127;47.780;9.606;2023-09-18T01:07:34;18.50;99.90
19930;DHT22;10127;47.780;9.606;2023-09-18T01:10:00;18.60;99.90
19930;DHT22;10127;47.780;9.606;2023-09-18T01:12:53;18.50;99.90
19930;DHT22;10127;47.780;9.606;2023-09-18T01:15:21;18.50;99.90
19930;DHT22;10127;47.780;9.606;2023-09-18T01:17:49;18.50;99.90
19930;DHT22;10127;47.780;9.606;2023-09-18T01:20:15;18.50;99.90
19930;DHT22;10127;47.780;9.606;2023-09-18T01:22:40;18.50;99.90
19930;DHT22;10127;47.780;9.606;2023-09-18T01:25:07;18.40;99.90
19930;DHT22;10127;47.780;9.606;2023-09-18T01:27:33;18.40;99.90
19930;DHT22;10127;47.780;9.606;2023-09-18T01:29:59;18.50;99.90
19930;DHT22;10127;47.780;9.606;2023-09-18T01:32:27;18.40;99.90
19930;DHT22;10127;47.780;9.606;2023-09-18T01:34:57;18.40;99.90
19930;DHT22;10127;47.780;9.606;2023-09-18T01:37:24;18.40;99.90
19930;DHT22;10127;47.780;9.606;2023-09-18T01:39:51;18.40;99.90
19930;DHT22;10127;47.780;9.606;2023-09-18T01:42:18;18.40;99.90
19930;DHT22;10127;47.780;9.606;2023-09-18T01:44:44;18.30;99.90
19930;DHT22;10127;47.780;9.606;2023-09-18T01:47:18;18.30;99.90
19930;DHT22;10127;47.780;9.606;2023-09-18T01:49:44;18.30;99.90
19930;DHT22;10127;47.780;9.606;2023-09-18T01:52:11;18.20;99.90
19930;DHT22;10127;47.780;9.606;2023-09-18T01:54:37;18.20;99.90
19930;DHT22;10127;47.780;9.606;2023-09-18T01:57:03;18.10;99.90
19930;DHT22;10127;47.780;9.606;2023-09-18T01:59:30;18.10;99.90
19930;DHT22;10127;47.780;9.606;2023-09-18T02:01:55;18.10;99.90
19930;DHT22;10127;47.780;9.606;2023-09-18T02:04:22;18.10;99.90
19930;DHT22;10127;47.780;9.606;2023-09-18T02:06:49;18.00;99.90
19930;DHT22;10127;47.780;9.606;2023-09-18T02:09:16;18.00;99.90
19930;DHT22;10127;47.780;9.606;2023-09-18T02:11:43;18.00;99.90
19930;DHT22;10127;47.780;9.606;2023-09-18T02:14:09;18.10;99.90
19930;DHT22;10127;47.780;9.606;2023-09-18T02:16:39;18.00;99.90
19930;DHT22;10127;47.780;9.606;2023-09-18T02:19:13;18.10;99.90
19930;DHT22;10127;47.780;9.606;2023-09-18T02:21:42;18.10;99.90
19930;DHT22;10127;47.780;9.606;2023-09-18T02:24:08;18.10;99.90
19930;DHT22;10127;47.780;9.606;2023-09-18T02:26:34;18.10;99.90
19930;DHT22;10127;47.780;9.606;2023-09-18T02:29:07;18.10;99.90
19930;DHT22;10127;47.780;9.606;2023-09-18T02:31:38;18.10;99.90
19930;DHT22;10127;47.780;9.606;2023-09-18T02:34:04;18.00;99.90
19930;DHT22;10127;47.780;9.606;2023-09-18T02:36:30;18.00;99.90
19930;DHT22;10127;47.780;9.606;2023-09-18T02:38:55;18.00;99.90
19930;DHT22;10127;47.780;9.606;2023-09-18T02:41:21;18.00;99.90
19930;DHT22;10127;47.780;9.606;2023-09-18T02:43:47;18.00;99.90
19930;DHT22;10127;47.780;9.606;2023-09-18T02:46:12;18.00;99.90
19930;DHT22;10127;47.780;9.606;2023-09-18T02:48:38;18.00;99.90
19930;DHT22;10127;47.780;9.606;2023-09-18T02:51:05;18.00;99.90
19930;DHT22;10127;47.780;9.606;2023-09-18T02:53:32;18.00;99.90
19930;DHT22;10127;47.780;9.606;2023-09-18T02:55:59;18.00;99.90
19930;DHT22;10127;47.780;9.606;2023-09-18T02:58:25;17.90;99.90
19930;DHT22;10127;47.780;9.606;2023-09-18T03:00:54;18.00;99.90
19930;DHT22;10127;47.780;9.606;2023-09-18T03:03:20;18.00;99.90
19930;DHT22;10127;47.780;9.606;2023-09-18T03:05:46;17.90;99.90
19930;DHT22;10127;47.780;9.606;2023-09-18T03:08:14;18.00;99.90
19930;DHT22;10127;47.780;9.606;2023-09-18T03:10:42;18.00;99.90
19930;DHT22;10127;47.780;9.606;2023-09-18T03:13:09;18.00;99.90
19930;DHT22;10127;47.780;9.606;2023-09-18T03:15:35;17.90;99.90
19930;DHT22;10127;47.780;9.606;2023-09-18T03:18:02;18.00;99.90
19930;DHT22;10127;47.780;9.606;2023-09-18T03:20:29;17.90;99.90
19930;DHT22;10127;47.780;9.606;2023-09-18T03:22:59;17.90;99.90
19930;DHT22;10127;47.780;9.606;2023-09-18T03:25:25;17.90;99.90
19930;DHT22;10127;47.780;9.606;2023-09-18T03:27:55;17.90;99.90
19930;DHT22;10127;47.780;9.606;2023-09-18T03:30:22;17.90;99.90
19930;DHT22;10127;47.780;9.606;2023-09-18T03:32:54;17.90;99.90
19930;DHT22;10127;47.780;9.606;2023-09-18T03:35:20;18.00;99.90
19930;DHT22;10127;47.780;9.606;2023-09-18T03:37:51;18.00;99.90
19930;DHT22;10127;47.780;9.606;2023-09-18T03:40:17;18.00;99.90
19930;DHT22;10127;47.780;9.606;2023-09-18T03:42:43;18.10;99.90
19930;DHT22;10127;47.780;9.606;2023-09-18T03:45:10;18.10;99.90
19930;DHT22;10127;47.780;9.606;2023-09-18T03:47:39;18.10;99.90
19930;DHT22;10127;47.780;9.606;2023-09-18T03:50:07;18.00;99.90
19930;DHT22;10127;47.780;9.606;2023-09-18T03:52:33;17.90;99.90
19930;DHT22;10127;47.780;9.606;2023-09-18T03:54:58;17.90;99.90
19930;DHT22;10127;47.780;9.606;2023-09-18T03:57:24;17.90;99.90
19930;DHT22;10127;47.780;9.606;2023-09-18T03:59:50;17.80;99.90
19930;DHT22;10127;47.780;9.606;2023-09-18T04:02:15;17.90;99.90
19930;DHT22;10127;47.780;9.606;2023-09-18T04:04:41;17.80;99.90
19930;DHT22;10127;47.780;9.606;2023-09-18T04:07:08;17.80;99.90
19930;DHT22;10127;47.780;9.606;2023-09-18T04:09:33;17.80;99.90
19930;DHT22;10127;47.780;9.606;2023-09-18T04:12:01;17.70;99.90
19930;DHT22;10127;47.780;9.606;2023-09-18T04:14:26;17.70;99.90
19930;DHT22;10127;47.780;9.606;2023-09-18T04:16:52;17.70;99.90
19930;DHT22;10127;47.780;9.606;2023-09-18T04:19:17;17.80;99.90
19930;DHT22;10127;47.780;9.606;2023-09-18T04:21:43;17.80;99.90
19930;DHT22;10127;47.780;9.606;2023-09-18T04:24:09;17.90;99.90
19930;DHT22;10127;47.780;9.606;2023-09-18T04:26:34;17.90;99.90
19930;DHT22;10127;47.780;9.606;2023-09-18T04:29:00;18.00;99.90
19930;DHT22;10127;47.780;9.606;2023-09-18T04:31:27;17.90;99.90
19930;DHT22;10127;47.780;9.606;2023-09-18T04:33:53;17.90;99.90
19930;DHT22;10127;47.780;9.606;2023-09-18T04:36:19;18.00;99.90
19930;DHT22;10127;47.780;9.606;2023-09-18T04:38:45;17.90;99.90
19930;DHT22;10127;47.780;9.606;2023-09-18T04:41:10;18.10;99.90
19930;DHT22;10127;47.780;9.606;2023-09-18T04:43:37;18.00;99.90
19930;DHT22;10127;47.780;9.606;2023-09-18T04:46:04;17.90;99.90
19930;DHT22;10127;47.780;9.606;2023-09-18T04:48:31;17.90;99.90
19930;DHT22;10127;47.780;9.606;2023-09-18T04:50:57;17.90;99.90
19930;DHT22;10127;47.780;9.606;2023-09-18T04:53:24;17.90;99.90
19930;DHT22;10127;47.780;9.606;2023-09-18T04:55:49;17.90;99.90
19930;DHT22;10127;47.780;9.606;2023-09-18T04:58:18;17.90;99.90
19930;DHT22;10127;47.780;9.606;2023-09-18T05:00:44;18.00;99.90
19930;DHT22;10127;47.780;9.606;2023-09-18T05:03:12;17.90;99.90
19930;DHT22;10127;47.780;9.606;2023-09-18T05:05:38;17.80;99.90
19930;DHT22;10127;47.780;9.606;2023-09-18T05:08:06;17.80;99.90
19930;DHT22;10127;47.780;9.606;2023-09-18T05:10:35;17.80;99.90
19930;DHT22;10127;47.780;9.606;2023-09-18T05:13:02;17.80;99.90
19930;DHT22;10127;47.780;9.606;2023-09-18T05:15:28;17.70;99.90
19930;DHT22;10127;47.780;9.606;2023-09-18T05:17:58;17.70;99.90
19930;DHT22;10127;47.780;9.606;2023-09-18T05:20:25;17.70;99.90
19930;DHT22;10127;47.780;9.606;2023-09-18T05:22:52;17.70;99.90
19930;DHT22;10127;47.780;9.606;2023-09-18T05:25:24;17.70;99.90
19930;DHT22;10127;47.780;9.606;2023-09-18T05:28:00;17.70;99.90
19930;DHT22;10127;47.780;9.606;2023-09-18T05:30:28;17.70;99.90
19930;DHT22;10127;47.780;9.606;2023-09-18T05:32:55;17.70;99.90
19930;DHT22;10127;47.780;9.606;2023-09-18T05:35:20;17.70;99.90
19930;DHT22;10127;47.780;9.606;2023-09-18T05:37:47;17.70;99.90
19930;DHT22;10127;47.780;9.606;2023-09-18T05:40:13;17.70;99.90
19930;DHT22;10127;47.780;9.606;2023-09-18T05:42:40;17.80;99.90
19930;DHT22;10127;47.780;9.606;2023-09-18T05:45:09;17.90;99.90
19930;DHT22;10127;47.780;9.606;2023-09-18T05:47:41;18.00;99.90
19930;DHT22;10127;47.780;9.606;2023-09-18T05:50:11;18.00;99.90
19930;DHT22;10127;47.780;9.606;2023-09-18T05:52:41;18.20;99.90
19930;DHT22;10127;47.780;9.606;2023-09-18T05:55:07;18.30;99.90
19930;DHT22;10127;47.780;9.606;2023-09-18T05:57:34;18.30;99.90
19930;DHT22;10127;47.780;9.606;2023-09-18T05:59:59;18.40;99.90
19930;DHT22;10127;47.780;9.606;2023-09-18T06:02:25;18.50;99.90
19930;DHT22;10127;47.780;9.606;2023-09-18T06:05:01;18.60;99.90
19930;DHT22;10127;47.780;9.606;2023-09-18T06:07:27;18.70;99.90
19930;DHT22;10127;47.780;9.606;2023-09-18T06:09:53;18.60;99.90
19930;DHT22;10127;47.780;9.606;2023-09-18T06:12:18;18.70;99.90
19930;DHT22;10127;47.780;9.606;2023-09-18T06:14:44;18.80;99.90
19930;DHT22;10127;47.780;9.606;2023-09-18T06:17:12;19.00;99.90
19930;DHT22;10127;47.780;9.606;2023-09-18T06:19:37;19.10;99.90
19930;DHT22;10127;47.780;9.606;2023-09-18T06:22:04;19.20;99.90
19930;DHT22;10127;47.780;9.606;2023-09-18T06:24:30;19.30;99.90
19930;DHT22;10127;47.780;9.606;2023-09-18T06:26:55;19.40;99.90
19930;DHT22;10127;47.780;9.606;2023-09-18T06:29:21;19.40;99.90
19930;DHT22;10127;47.780;9.606;2023-09-18T06:31:47;19.40;99.90
19930;DHT22;10127;47.780;9.606;2023-09-18T06:34:12;19.50;99.90
19930;DHT22;10127;47.780;9.606;2023-09-18T06:36:38;19.50;99.90
19930;DHT22;10127;47.780;9.606;2023-09-18T06:39:04;19.50;99.90
19930;DHT22;10127;47.780;9.606;2023-09-18T06:41:29;19.50;99.90
19930;DHT22;10127;47.780;9.606;2023-09-18T06:43:55;19.50;99.90
19930;DHT22;10127;47.780;9.606;2023-09-18T06:46:22;19.60;99.90
19930;DHT22;10127;47.780;9.606;2023-09-18T06:48:54;19.60;99.90
19930;DHT22;10127;47.780;9.606;2023-09-18T06:51:21;19.60;99.90
19930;DHT22;10127;47.780;9.606;2023-09-18T06:53:47;19.60;99.90
19930;DHT22;10127;47.780;9.606;2023-09-18T06:56:13;19.70;99.90
19930;DHT22;10127;47.780;9.606;2023-09-18T06:58:38;19.70;99.90
19930;DHT22;10127;47.780;9.606;2023-09-18T07:01:04;19.70;99.90
19930;DHT22;10127;47.780;9.606;2023-09-18T07:03:32;19.80;99.90
19930;DHT22;10127;47.780;9.606;2023-09-18T07:06:00;19.80;99.90
19930;DHT22;10127;47.780;9.606;2023-09-18T07:08:25;19.80;99.90
19930;DHT22;10127;47.780;9.606;2023-09-18T07:10:51;19.80;99.90
19930;DHT22;10127;47.780;9.606;2023-09-18T07:13:17;19.80;99.90
19930;DHT22;10127;47.780;9.606;2023-09-18T07:15:43;19.80;99.90
19930;DHT22;10127;47.780;9.606;2023-09-18T07:18:10;19.80;99.90
19930;DHT22;10127;47.780;9.606;2023-09-18T07:20:45;19.80;99.90
19930;DHT22;10127;47.780;9.606;2023-09-18T07:23:11;19.80;99.90
19930;DHT22;10127;47.780;9.606;2023-09-18T07:25:36;19.80;99.90
19930;DHT22;10127;47.780;9.606;2023-09-18T07:28:06;19.90;99.90
19930;DHT22;10127;47.780;9.606;2023-09-18T07:30:32;19.90;99.90
19930;DHT22;10127;47.780;9.606;2023-09-18T07:32:58;20.00;99.90
19930;DHT22;10127;47.780;9.606;2023-09-18T07:35:26;20.00;99.90
19930;DHT22;10127;47.780;9.606;2023-09-18T07:37:52;20.20;99.90
19930;DHT22;10127;47.780;9.606;2023-09-18T07:40:17;20.30;99.90
19930;DHT22;10127;47.780;9.606;2023-09-18T07:42:43;20.40;99.90
19930;DHT22;10127;47.780;9.606;2023-09-18T07:45:10;20.60;99.90
19930;DHT22;10127;47.780;9.606;2023-09-18T07:47:35;20.80;99.90
19930;DHT22;10127;47.780;9.606;2023-09-18T07:50:01;20.90;99.90
19930;DHT22;10127;47.780;9.606;2023-09-18T07:52:28;21.10;99.90
19930;DHT22;10127;47.780;9.606;2023-09-18T07:54:54;21.20;99.90
19930;DHT22;10127;47.780;9.606;2023-09-18T07:57:21;21.30;99.90
19930;DHT22;10127;47.780;9.606;2023-09-18T07:59:48;21.30;99.90
19930;DHT22;10127;47.780;9.606;2023-09-18T08:02:14;21.30;99.90
19930;DHT22;10127;47.780;9.606;2023-09-18T08:04:40;21.30;99.90
19930;DHT22;10127;47.780;9.606;2023-09-18T08:07:06;21.30;99.90
19930;DHT22;10127;47.780;9.606;2023-09-18T08:09:32;21.30;99.90
19930;DHT22;10127;47.780;9.606;2023-09-18T08:12:02;21.40;99.90
19930;DHT22;10127;47.780;9.606;2023-09-18T08:14:28;21.50;99.90
19930;DHT22;10127;47.780;9.606;2023-09-18T08:16:58;21.50;99.90
19930;DHT22;10127;47.780;9.606;2023-09-18T08:19:25;21.60;99.90
19930;DHT22;10127;47.780;9.606;2023-09-18T08:21:54;21.70;99.90
19930;DHT22;10127;47.780;9.606;2023-09-18T08:24:22;21.70;99.90
19930;DHT22;10127;47.780;9.606;2023-09-18T08:26:49;21.70;99.90
19930;DHT22;10127;47.780;9.606;2023-09-18T08:29:15;21.70;99.90
19930;DHT22;10127;47.780;9.606;2023-09-18T08:31:41;21.70;99.90
19930;DHT22;10127;47.780;9.606;2023-09-18T08:34:06;21.60;99.90
19930;DHT22;10127;47.780;9.606;2023-09-18T08:36:32;21.60;99.90
19930;DHT22;10127;47.780;9.606;2023-09-18T08:38:58;21.50;99.90
19930;DHT22;10127;47.780;9.606;2023-09-18T08:41:24;21.40;99.90
19930;DHT22;10127;47.780;9.606;2023-09-18T08:43:56;21.30;99.90
19930;DHT22;10127;47.780;9.606;2023-09-18T08:46:25;21.30;99.90
19930;DHT22;10127;47.780;9.606;2023-09-18T08:48:51;21.40;99.90
19930;DHT22;10127;47.780;9.606;2023-09-18T08:51:18;21.50;99.90
19930;DHT22;10127;47.780;9.606;2023-09-18T08:53:44;21.60;99.90
19930;DHT22;10127;47.780;9.606;2023-09-18T08:56:12;21.60;99.90
19930;DHT22;10127;47.780;9.606;2023-09-18T08:58:40;21.50;99.90
19930;DHT22;10127;47.780;9.606;2023-09-18T09:01:09;21.30;99.90
19930;DHT22;10127;47.780;9.606;2023-09-18T09:03:38;21.30;99.90
19930;DHT22;10127;47.780;9.606;2023-09-18T09:06:06;21.20;99.90
19930;DHT22;10127;47.780;9.606;2023-09-18T09:08:32;20.90;99.90
19930;DHT22;10127;47.780;9.606;2023-09-18T09:10:59;20.80;99.90
19930;DHT22;10127;47.780;9.606;2023-09-18T09:13:25;20.70;99.90
19930;DHT22;10127;47.780;9.606;2023-09-18T09:15:55;20.70;99.90
19930;DHT22;10127;47.780;9.606;2023-09-18T09:18:23;20.60;99.90
19930;DHT22;10127;47.780;9.606;2023-09-18T09:20:55;20.50;99.90
19930;DHT22;10127;47.780;9.606;2023-09-18T09:23:27;20.40;99.90
19930;DHT22;10127;47.780;9.606;2023-09-18T09:25:53;20.30;99.90
19930;DHT22;10127;47.780;9.606;2023-09-18T09:28:31;20.20;99.90
19930;DHT22;10127;47.780;9.606;2023-09-18T09:31:03;20.00;99.90
19930;DHT22;10127;47.780;9.606;2023-09-18T09:33:30;19.90;99.90
19930;DHT22;10127;47.780;9.606;2023-09-18T09:35:56;19.80;99.90
19930;DHT22;10127;47.780;9.606;2023-09-18T09:38:30;19.70;99.90
19930;DHT22;10127;47.780;9.606;2023-09-18T09:41:04;19.60;99.90
19930;DHT22;10127;47.780;9.606;2023-09-18T09:43:35;19.60;99.90
19930;DHT22;10127;47.780;9.606;2023-09-18T09:46:02;19.50;99.90
19930;DHT22;10127;47.780;9.606;2023-09-18T09:48:37;19.40;99.90
19930;DHT22;10127;47.780;9.606;2023-09-18T09:51:17;19.40;99.90
19930;DHT22;10127;47.780;9.606;2023-09-18T09:53:49;19.30;99.90
19930;DHT22;10127;47.780;9.606;2023-09-18T09:56:17;19.30;99.90
19930;DHT22;10127;47.780;9.606;2023-09-18T09:59:07;19.20;99.90
19930;DHT22;10127;47.780;9.606;2023-09-18T10:01:34;19.20;99.90
19930;DHT22;10127;47.780;9.606;2023-09-18T10:04:03;19.20;99.90
19930;DHT22;10127;47.780;9.606;2023-09-18T10:06:33;19.10;99.90
19930;DHT22;10127;47.780;9.606;2023-09-18T10:09:01;19.00;99.90
19930;DHT22;10127;47.780;9.606;2023-09-18T10:11:27;19.00;99.90
19930;DHT22;10127;47.780;9.606;2023-09-18T10:14:01;19.00;99.90
19930;DHT22;10127;47.780;9.606;2023-09-18T10:16:30;19.00;99.90
19930;DHT22;10127;47.780;9.606;2023-09-18T10:24:28;19.00;99.90
19930;DHT22;10127;47.780;9.606;2023-09-18T10:26:59;18.90;99.90
19930;DHT22;10127;47.780;9.606;2023-09-18T10:29:26;19.00;99.90
19930;DHT22;10127;47.780;9.606;2023-09-18T10:31:53;18.90;99.90
19930;DHT22;10127;47.780;9.606;2023-09-18T10:34:20;19.00;99.90
19930;DHT22;10127;47.780;9.606;2023-09-18T10:36:51;19.00;99.90
19930;DHT22;10127;47.780;9.606;2023-09-18T10:39:17;19.00;99.90
19930;DHT22;10127;47.780;9.606;2023-09-18T10:41:51;19.10;99.90
19930;DHT22;10127;47.780;9.606;2023-09-18T10:44:18;19.20;99.90
19930;DHT22;10127;47.780;9.606;2023-09-18T10:46:48;19.30;99.90
19930;DHT22;10127;47.780;9.606;2023-09-18T10:49:15;19.30;99.90
19930;DHT22;10127;47.780;9.606;2023-09-18T10:51:41;19.40;99.90
19930;DHT22;10127;47.780;9.606;2023-09-18T10:54:13;19.50;99.90
19930;DHT22;10127;47.780;9.606;2023-09-18T10:56:41;19.50;99.90
19930;DHT22;10127;47.780;9.606;2023-09-18T10:59:08;19.50;99.90
19930;DHT22;10127;47.780;9.606;2023-09-18T11:01:37;19.60;99.90
19930;DHT22;10127;47.780;9.606;2023-09-18T11:04:06;19.90;99.90
19930;DHT22;10127;47.780;9.606;2023-09-18T11:09:20;19.80;99.90
19930;DHT22;10127;47.780;9.606;2023-09-18T11:11:46;19.80;99.90
19930;DHT22;10127;47.780;9.606;2023-09-18T11:14:14;19.80;99.90
19930;DHT22;10127;47.780;9.606;2023-09-18T11:16:40;19.70;99.90
19930;DHT22;10127;47.780;9.606;2023-09-18T11:19:10;19.80;99.90
19930;DHT22;10127;47.780;9.606;2023-09-18T11:21:36;19.80;99.90
19930;DHT22;10127;47.780;9.606;2023-09-18T11:24:03;19.90;99.90
19930;DHT22;10127;47.780;9.606;2023-09-18T11:26:34;19.90;99.90
19930;DHT22;10127;47.780;9.606;2023-09-18T11:29:08;20.00;99.90
19930;DHT22;10127;47.780;9.606;2023-09-18T11:31:48;20.10;99.90
19930;DHT22;10127;47.780;9.606;2023-09-18T11:34:27;20.10;99.90
19930;DHT22;10127;47.780;9.606;2023-09-18T11:36:57;20.00;99.90
19930;DHT22;10127;47.780;9.606;2023-09-18T11:39:37;20.10;99.90
19930;DHT22;10127;47.780;9.606;2023-09-18T11:42:15;20.00;99.90
19930;DHT22;10127;47.780;9.606;2023-09-18T11:44:43;20.00;99.90
19930;DHT22;10127;47.780;9.606;2023-09-18T11:47:13;20.00;99.90
19930;DHT22;10127;47.780;9.606;2023-09-18T11:52:27;20.20;99.90
19930;DHT22;10127;47.780;9.606;2023-09-18T11:54:56;20.20;99.90
19930;DHT22;10127;47.780;9.606;2023-09-18T11:57:22;20.10;99.90
19930;DHT22;10127;47.780;9.606;2023-09-18T11:59:48;20.20;99.90
19930;DHT22;10127;47.780;9.606;2023-09-18T12:02:29;20.10;99.90
19930;DHT22;10127;47.780;9.606;2023-09-18T12:05:13;20.10;99.90
19930;DHT22;10127;47.780;9.606;2023-09-18T12:07:40;20.10;99.90
19930;DHT22;10127;47.780;9.606;2023-09-18T12:10:09;20.10;99.90
19930;DHT22;10127;47.780;9.606;2023-09-18T12:12:35;20.20;99.90
19930;DHT22;10127;47.780;9.606;2023-09-18T12:15:01;20.40;99.90
19930;DHT22;10127;47.780;9.606;2023-09-18T12:17:27;20.50;99.90
19930;DHT22;10127;47.780;9.606;2023-09-18T12:19:54;20.70;99.90
19930;DHT22;10127;47.780;9.606;2023-09-18T12:22:27;20.90;99.90
19930;DHT22;10127;47.780;9.606;2023-09-18T12:24:54;20.80;99.90
19930;DHT22;10127;47.780;9.606;2023-09-18T12:27:35;20.80;99.90
19930;DHT22;10127;47.780;9.606;2023-09-18T12:30:03;20.70;99.90
19930;DHT22;10127;47.780;9.606;2023-09-18T12:32:30;20.60;99.90
19930;DHT22;10127;47.780;9.606;2023-09-18T12:34:58;20.70;99.90
19930;DHT22;10127;47.780;9.606;2023-09-18T12:37:23;20.60;99.90
19930;DHT22;10127;47.780;9.606;2023-09-18T12:39:50;20.50;99.90
19930;DHT22;10127;47.780;9.606;2023-09-18T12:42:20;20.60;99.90
19930;DHT22;10127;47.780;9.606;2023-09-18T12:44:48;20.60;99.90
19930;DHT22;10127;47.780;9.606;2023-09-18T12:47:14;20.60;99.90
19930;DHT22;10127;47.780;9.606;2023-09-18T12:49:40;20.60;99.90
19930;DHT22;10127;47.780;9.606;2023-09-18T12:52:06;20.60;99.90
19930;DHT22;10127;47.780;9.606;2023-09-18T12:55:05;20.50;99.90
19930;DHT22;10127;47.780;9.606;2023-09-18T12:57:32;20.50;99.90
19930;DHT22;10127;47.780;9.606;2023-09-18T12:59:58;20.50;99.90
19930;DHT22;10127;47.780;9.606;2023-09-18T13:02:24;20.40;99.90
19930;DHT22;10127;47.780;9.606;2023-09-18T13:04:56;20.40;99.90
19930;DHT22;10127;47.780;9.606;2023-09-18T13:07:23;20.40;99.90
19930;DHT22;10127;47.780;9.606;2023-09-18T13:10:03;20.40;99.90
19930;DHT22;10127;47.780;9.606;2023-09-18T13:15:09;20.60;99.90
19930;DHT22;10127;47.780;9.606;2023-09-18T13:17:39;20.70;99.90
19930;DHT22;10127;47.780;9.606;2023-09-18T13:20:28;20.60;99.90
19930;DHT22;10127;47.780;9.606;2023-09-18T13:22:58;20.80;99.90
19930;DHT22;10127;47.780;9.606;2023-09-18T13:25:29;20.80;99.90
19930;DHT22;10127;47.780;9.606;2023-09-18T13:27:55;20.90;99.90
19930;DHT22;10127;47.780;9.606;2023-09-18T13:30:21;20.90;99.90
19930;DHT22;10127;47.780;9.606;2023-09-18T13:32:48;20.90;99.90
19930;DHT22;10127;47.780;9.606;2023-09-18T13:35:18;21.10;99.90
19930;DHT22;10127;47.780;9.606;2023-09-18T13:37:44;21.40;99.90
19930;DHT22;10127;47.780;9.606;2023-09-18T13:40:11;21.50;99.90
19930;DHT22;10127;47.780;9.606;2023-09-18T13:42:37;21.70;99.90
19930;DHT22;10127;47.780;9.606;2023-09-18T13:45:05;21.80;99.90
19930;DHT22;10127;47.780;9.606;2023-09-18T13:47:32;21.90;99.90
19930;DHT22;10127;47.780;9.606;2023-09-18T13:49:59;21.80;99.90
19930;DHT22;10127;47.780;9.606;2023-09-18T13:52:29;21.80;99.90
19930;DHT22;10127;47.780;9.606;2023-09-18T13:54:55;21.60;99.90
19930;DHT22;10127;47.780;9.606;2023-09-18T13:57:21;21.50;99.90
19930;DHT22;10127;47.780;9.606;2023-09-18T13:59:47;21.60;99.90
19930;DHT22;10127;47.780;9.606;2023-09-18T14:02:14;21.60;99.90
19930;DHT22;10127;47.780;9.606;2023-09-18T14:04:40;21.60;99.90
19930;DHT22;10127;47.780;9.606;2023-09-18T14:07:09;21.60;99.90
19930;DHT22;10127;47.780;9.606;2023-09-18T14:09:36;21.60;99.90
19930;DHT22;10127;47.780;9.606;2023-09-18T14:12:02;21.70;99.90
19930;DHT22;10127;47.780;9.606;2023-09-18T14:14:34;21.80;99.90
19930;DHT22;10127;47.780;9.606;2023-09-18T14:17:01;22.00;99.40
19930;DHT22;10127;47.780;9.606;2023-09-18T14:19:26;22.10;99.00
19930;DHT22;10127;47.780;9.606;2023-09-18T14:21:52;22.00;98.70
19930;DHT22;10127;47.780;9.606;2023-09-18T14:24:18;22.10;98.20
19930;DHT22;10127;47.780;9.606;2023-09-18T14:26:48;22.10;98.10
19930;DHT22;10127;47.780;9.606;2023-09-18T14:29:14;22.00;97.60
19930;DHT22;10127;47.780;9.606;2023-09-18T14:31:40;22.00;97.50
19930;DHT22;10127;47.780;9.606;2023-09-18T14:34:05;22.00;97.70
19930;DHT22;10127;47.780;9.606;2023-09-18T14:36:35;22.00;97.20
19930;DHT22;10127;47.780;9.606;2023-09-18T14:39:04;21.90;97.50
19930;DHT22;10127;47.780;9.606;2023-09-18T14:41:30;22.00;97.50
19930;DHT22;10127;47.780;9.606;2023-09-18T14:43:57;22.10;97.60
19930;DHT22;10127;47.780;9.606;2023-09-18T14:46:24;22.00;97.30
19930;DHT22;10127;47.780;9.606;2023-09-18T14:48:50;21.90;97.70
19930;DHT22;10127;47.780;9.606;2023-09-18T14:51:15;21.70;97.60
19930;DHT22;10127;47.780;9.606;2023-09-18T14:53:41;21.60;97.70
19930;DHT22;10127;47.780;9.606;2023-09-18T14:56:07;21.50;98.20
19930;DHT22;10127;47.780;9.606;2023-09-18T14:58:33;21.50;97.90
19930;DHT22;10127;47.780;9.606;2023-09-18T15:00:59;21.60;98.20
19930;DHT22;10127;47.780;9.606;2023-09-18T15:03:25;21.60;99.20
19930;DHT22;10127;47.780;9.606;2023-09-18T15:05:51;21.50;99.80
19930;DHT22;10127;47.780;9.606;2023-09-18T15:08:18;21.50;99.50
19930;DHT22;10127;47.780;9.606;2023-09-18T15:10:45;21.50;98.10
19930;DHT22;10127;47.780;9.606;2023-09-18T15:13:11;21.70;97.70
19930;DHT22;10127;47.780;9.606;2023-09-18T15:15:36;21.70;97.70
19930;DHT22;10127;47.780;9.606;2023-09-18T15:18:02;21.90;97.20
19930;DHT22;10127;47.780;9.606;2023-09-18T15:20:28;22.00;96.80
19930;DHT22;10127;47.780;9.606;2023-09-18T15:22:53;22.00;96.80
19930;DHT22;10127;47.780;9.606;2023-09-18T15:25:21;22.00;96.80
19930;DHT22;10127;47.780;9.606;2023-09-18T15:27:48;22.10;96.90
19930;DHT22;10127;47.780;9.606;2023-09-18T15:30:13;22.10;96.30
19930;DHT22;10127;47.780;9.606;2023-09-18T15:32:52;22.20;96.00
19930;DHT22;10127;47.780;9.606;2023-09-18T15:35:24;22.10;96.00
19930;DHT22;10127;47.780;9.606;2023-09-18T15:37:51;22.10;96.50
19930;DHT22;10127;47.780;9.606;2023-09-18T15:40:18;21.90;97.30
19930;DHT22;10127;47.780;9.606;2023-09-18T15:42:45;21.60;98.00
19930;DHT22;10127;47.780;9.606;2023-09-18T15:45:11;21.40;98.30
19930;DHT22;10127;47.780;9.606;2023-09-18T15:47:40;21.20;98.80